Thunder radar more information blitzortung!


Radar de pluja more information rain snow radar


Visita la nostra xarxa de llocs de meteo:

Template documentation
and downloads

And another site



No particular awareness of the weather is required.    There are no Weather-warnings

Pagina Historial Weather Underground text

Diari Resum Novembre 19, 2017 Unitats:  Mètric    Imperial   Tant
« Previous Dia
SegĂźent Dia »
Diari Setmana Mensual Anual Personalitzada
  Maxima: Minima: Media:
Temperatura: 16.4 °C 4.5 °C 10.2 °C
Punt de rosada: 6.5 °C -1.3 °C 2.2 °C
Humitat: 69 % 51 % 58 %
Wind Speed: 9.3 km/h 0.0 km/h 3 km/h
RĂ fegues de vent: 9.7 km/h - -
Vent:- - South
Pression baro: 1023.9 hPa 1019.9 hPa -
Precipitacions: 0.0 mm    
Historical Graphs
 
 
Dades de taula per Novembre 19, 2017
Temps Temperatura Punt de rosada Pression baro Vent Wind Speed RĂ fegues de vent Humitat Rainfall Rate (Hourly)
00:00 4.9 °C -1.1 °C 1019.9 hPa North 1.6 km/h 4.8 km/h 65 % 0.0 mm
00:04 7.2 °C -1.0 °C 1021.9 hPa WSW 3.7 km/h 3.7 km/h 56 % 0.0 mm
00:09 7.2 °C -1.0 °C 1021.9 hPa WSW 3.7 km/h 3.7 km/h 56 % 0.0 mm
00:10 4.8 °C -1.2 °C 1019.9 hPa North 3.2 km/h 3.2 km/h 65 % 0.0 mm
00:14 7.4 °C -0.8 °C 1021.9 hPa WSW 3.7 km/h 3.7 km/h 56 % 0.0 mm
00:19 7.2 °C -1.0 °C 1020.9 hPa NNE 1.9 km/h 1.9 km/h 56 % 0.0 mm
00:20 5.1 °C -0.9 °C 1019.9 hPa NW 3.2 km/h 4.8 km/h 65 % 0.0 mm
00:24 7.4 °C -0.8 °C 1020.9 hPa WNW 3.7 km/h 3.7 km/h 56 % 0.0 mm
00:29 7.5 °C -0.5 °C 1020.9 hPa WNW 1.9 km/h   57 % 0.0 mm
00:30 5.1 °C -0.9 °C 1019.9 hPa NNW 1.6 km/h 3.2 km/h 65 % 0.0 mm
00:34 7.4 °C -0.6 °C 1020.9 hPa Calm     57 % 0.0 mm
00:39 7.3 °C -0.7 °C 1020.9 hPa Calm     57 % 0.0 mm
00:40 5.1 °C -0.9 °C 1019.9 hPa NNW 3.2 km/h 4.8 km/h 65 % 0.0 mm
00:44 7.3 °C -0.7 °C 1020.9 hPa WNW 1.9 km/h 1.9 km/h 57 % 0.0 mm
00:49 7.3 °C -0.7 °C 1020.9 hPa Calm     57 % 0.0 mm
00:50 4.8 °C -1.2 °C 1019.9 hPa NW 1.6 km/h 3.2 km/h 65 % 0.0 mm
01:10 4.7 °C -1.3 °C 1019.9 hPa West 3.2 km/h 3.2 km/h 65 % 0.0 mm
01:20 4.8 °C -1.0 °C 1019.9 hPa West 1.6 km/h 3.2 km/h 66 % 0.0 mm
01:40 4.9 °C -0.9 °C 1019.9 hPa NW 1.6 km/h 4.8 km/h 66 % 0.0 mm
01:50 5.1 °C -0.7 °C 1019.9 hPa NNE 4.8 km/h 6.4 km/h 66 % 0.0 mm
02:00 5.0 °C -0.8 °C 1020.9 hPa Calm   6.4 km/h 66 % 0.0 mm
02:10 5.1 °C -0.7 °C 1020.9 hPa North 3.2 km/h 4.8 km/h 66 % 0.0 mm
02:40 6.0 °C 0.1 °C 1021.9 hPa NE 1.6 km/h 3.2 km/h 66 % 0.0 mm
03:00 6.1 °C 0.0 °C 1021.9 hPa NNE 4.8 km/h 4.8 km/h 65 % 0.0 mm
03:10 6.3 °C 0.2 °C 1021.9 hPa NNE 3.2 km/h 6.4 km/h 65 % 0.0 mm
03:20 6.6 °C 0.5 °C 1021.9 hPa North 3.2 km/h 4.8 km/h 65 % 0.0 mm
03:30 7.0 °C 0.7 °C 1021.9 hPa North 3.2 km/h 4.8 km/h 64 % 0.0 mm
03:50 7.5 °C 1.1 °C 1021.9 hPa North 3.2 km/h 4.8 km/h 64 % 0.0 mm
04:00 8.0 °C 1.4 °C 1021.9 hPa NNE 3.2 km/h 6.4 km/h 63 % 0.0 mm
04:10 8.6 °C 1.9 °C 1022.9 hPa NNE 1.6 km/h 3.2 km/h 63 % 0.0 mm
04:20 8.8 °C 1.9 °C 1022.9 hPa NNE 3.2 km/h 6.4 km/h 62 % 0.0 mm
04:30 9.1 °C 2.2 °C 1022.9 hPa NNE 3.2 km/h 4.8 km/h 62 % 0.0 mm
04:40 9.3 °C 2.2 °C 1022.9 hPa North 4.8 km/h 4.8 km/h 61 % 0.0 mm
04:50 9.2 °C 2.1 °C 1022.9 hPa NNE 4.8 km/h 6.4 km/h 61 % 0.0 mm
05:00 9.7 °C 2.6 °C 1022.9 hPa NNE 4.8 km/h 9.7 km/h 61 % 0.0 mm
11:10 10.2 °C 2.8 °C 1022.9 hPa NE 5.8 km/h 5.8 km/h 60 % 0.0 mm
11:15 10.3 °C 2.9 °C 1022.9 hPa NNE 7.4 km/h 7.4 km/h 60 % 0.0 mm
11:20 10.5 °C 3.1 °C 1023.9 hPa ENE 5.8 km/h 5.8 km/h 60 % 0.0 mm
11:30 10.8 °C 3.1 °C 1023.9 hPa ENE 7.4 km/h 7.4 km/h 59 % 0.0 mm
11:35 11.0 °C 3.3 °C 1022.9 hPa North 6.4 km/h 6.4 km/h 59 % 0.0 mm
11:40 11.0 °C 3.1 °C 1022.9 hPa ENE 9.3 km/h 9.3 km/h 58 % 0.0 mm
11:45 11.3 °C 3.6 °C 1022.9 hPa ENE 3.7 km/h 3.7 km/h 59 % 0.0 mm
11:50 11.5 °C 3.5 °C 1022.9 hPa ENE 5.6 km/h 5.6 km/h 58 % 0.0 mm
12:05 12.0 °C 4.0 °C 1022.9 hPa NNE 3.7 km/h 3.7 km/h 58 % 0.0 mm
12:10 12.2 °C 3.9 °C 1022.9 hPa ENE 5.6 km/h 5.6 km/h 57 % 0.0 mm
12:15 12.3 °C 4.0 °C 1022.9 hPa ESE 9.3 km/h 9.3 km/h 57 % 0.0 mm
12:20 12.5 °C 4.2 °C 1022.9 hPa NNE 5.6 km/h 5.6 km/h 57 % 0.0 mm
12:30 12.7 °C 4.2 °C 1022.9 hPa North 7.4 km/h 7.4 km/h 56 % 0.0 mm
12:45 13.0 °C 4.4 °C 1022.9 hPa NNE 5.3 km/h 5.3 km/h 56 % 0.0 mm
12:50 13.3 °C 4.7 °C 1022.9 hPa NNE 3.7 km/h 3.7 km/h 56 % 0.0 mm
12:55 13.3 °C 4.7 °C 1022.9 hPa North 5.6 km/h 5.6 km/h 56 % 0.0 mm
13:00 13.3 °C 4.4 °C 1022.9 hPa East 5.6 km/h 5.6 km/h 55 % 0.0 mm
13:10 13.6 °C 4.7 °C 1021.9 hPa ENE 5.6 km/h 5.6 km/h 55 % 0.0 mm
13:15 13.7 °C 4.8 °C 1021.9 hPa NNE 7.6 km/h 7.6 km/h 55 % 0.0 mm
13:20 13.8 °C 4.9 °C 1021.9 hPa NE 5.8 km/h 5.8 km/h 55 % 0.0 mm
13:25 13.9 °C 4.7 °C 1021.9 hPa North 9.0 km/h 9.0 km/h 54 % 0.0 mm
13:30 13.9 °C 4.7 °C 1021.9 hPa ESE 5.8 km/h 5.8 km/h 54 % 0.0 mm
13:35 14.0 °C 4.8 °C 1021.9 hPa ENE 3.7 km/h 3.7 km/h 54 % 0.0 mm
13:40 14.2 °C 5.0 °C 1021.9 hPa NNW 5.6 km/h 5.6 km/h 54 % 0.0 mm
13:45 14.3 °C 5.1 °C 1021.9 hPa NNE 5.6 km/h 5.6 km/h 54 % 0.0 mm
13:50 14.3 °C 5.1 °C 1021.9 hPa NNW 3.7 km/h 3.7 km/h 54 % 0.0 mm
14:00 14.4 °C 5.2 °C 1021.9 hPa NE 3.7 km/h 3.7 km/h 54 % 0.0 mm
14:05 14.6 °C 5.4 °C 1021.9 hPa NNE 7.4 km/h 7.4 km/h 54 % 0.0 mm
14:10 14.6 °C 5.4 °C 1021.9 hPa NNE 6.4 km/h 6.4 km/h 54 % 0.0 mm
14:15 14.7 °C 5.5 °C 1021.9 hPa North 4.7 km/h 4.7 km/h 54 % 0.0 mm
14:20 14.8 °C 5.6 °C 1021.9 hPa NE 3.7 km/h 3.7 km/h 54 % 0.0 mm
14:35 15.0 °C 5.5 °C 1021.9 hPa NNE 3.9 km/h 3.9 km/h 53 % 0.0 mm
14:40 15.0 °C 5.5 °C 1021.9 hPa NNE 7.4 km/h 7.4 km/h 53 % 0.0 mm
14:50 15.0 °C 5.5 °C 1020.9 hPa NNE 7.4 km/h 7.4 km/h 53 % 0.0 mm
14:55 15.1 °C 5.6 °C 1020.9 hPa ENE 3.5 km/h   53 % 0.0 mm
15:00 15.2 °C 5.7 °C 1020.9 hPa ENE 5.6 km/h 5.6 km/h 53 % 0.0 mm
15:05 15.3 °C 5.8 °C 1021.9 hPa NNE 1.9 km/h   53 % 0.0 mm
15:10 15.3 °C 5.8 °C 1021.9 hPa NE 3.7 km/h 3.7 km/h 53 % 0.0 mm
15:15 15.4 °C 5.6 °C 1021.9 hPa ENE 2.3 km/h 2.3 km/h 52 % 0.0 mm
15:20 15.4 °C 5.6 °C 1021.9 hPa NNE 5.6 km/h 5.6 km/h 52 % 0.0 mm
15:25 15.4 °C 5.6 °C 1021.9 hPa NE 2.6 km/h 2.6 km/h 52 % 0.0 mm
15:30 15.4 °C 5.6 °C 1021.9 hPa NNE 3.7 km/h 3.7 km/h 52 % 0.0 mm
15:35 15.4 °C 5.6 °C 1020.9 hPa NNE 3.7 km/h 3.7 km/h 52 % 0.0 mm
15:41 15.5 °C 5.7 °C 1020.9 hPa NNE 3.7 km/h 3.7 km/h 52 % 0.0 mm
15:46 15.5 °C 5.7 °C 1020.9 hPa NE 1.9 km/h   52 % 0.0 mm
15:51 15.6 °C 5.8 °C 1021.9 hPa North 1.9 km/h 1.9 km/h 52 % 0.0 mm
15:56 15.6 °C 5.8 °C 1021.9 hPa Calm     52 % 0.0 mm
16:01 15.6 °C 5.8 °C 1021.9 hPa NNE 1.9 km/h 1.9 km/h 52 % 0.0 mm
16:06 15.6 °C 5.5 °C 1021.9 hPa Calm     51 % 0.0 mm
16:11 15.7 °C 5.6 °C 1021.9 hPa ENE 2.6 km/h   51 % 0.0 mm
16:16 16.3 °C 6.4 °C 1021.9 hPa SW 3.7 km/h 3.7 km/h 52 % 0.0 mm
16:21 16.1 °C 5.9 °C 1021.9 hPa Calm     51 % 0.0 mm
16:26 16.1 °C 5.9 °C 1021.9 hPa SW 1.9 km/h 1.9 km/h 51 % 0.0 mm
16:31 16.2 °C 6.1 °C 1021.9 hPa Calm     51 % 0.0 mm
16:36 16.4 °C 6.5 °C 1021.9 hPa SW 2.3 km/h 2.3 km/h 52 % 0.0 mm
16:41 16.2 °C 6.3 °C 1021.9 hPa WNW 3.7 km/h 3.7 km/h 52 % 0.0 mm
16:46 16.2 °C 6.3 °C 1021.9 hPa WNW 7.4 km/h 7.4 km/h 52 % 0.0 mm
16:51 16.0 °C 5.8 °C 1021.9 hPa WNW 5.6 km/h 5.6 km/h 51 % 0.0 mm
16:56 15.8 °C 5.7 °C 1021.9 hPa NNW 3.7 km/h 3.7 km/h 51 % 0.0 mm
17:01 15.5 °C 5.4 °C 1021.9 hPa West 3.9 km/h 3.9 km/h 51 % 0.0 mm
17:06 15.3 °C 5.2 °C 1021.9 hPa NW 3.7 km/h 3.7 km/h 51 % 0.0 mm
17:16 14.8 °C 4.8 °C 1021.9 hPa WNW 3.7 km/h 3.7 km/h 51 % 0.0 mm
17:21 14.6 °C 4.6 °C 1021.9 hPa NW 1.9 km/h   51 % 0.0 mm
17:31 14.0 °C 4.0 °C 1021.9 hPa WNW 5.6 km/h 5.6 km/h 51 % 0.0 mm
17:36 13.8 °C 3.8 °C 1021.9 hPa WNW 3.7 km/h 3.7 km/h 51 % 0.0 mm
17:41 13.7 °C 3.7 °C 1021.9 hPa WNW 1.4 km/h   51 % 0.0 mm
17:46 13.5 °C 3.8 °C 1021.9 hPa NW 3.7 km/h 3.7 km/h 52 % 0.0 mm
17:47 13.5 °C 3.8 °C 1021.9 hPa NW 3.7 km/h 3.7 km/h 52 % 0.0 mm
17:52 13.4 °C 3.7 °C 1021.9 hPa NW 1.9 km/h 1.9 km/h 52 % 0.0 mm
17:57 13.2 °C 3.6 °C 1021.9 hPa Calm     52 % 0.0 mm
18:02 13.1 °C 3.4 °C 1021.9 hPa WSW 3.7 km/h 3.7 km/h 52 % 0.0 mm
18:07 12.7 °C 3.1 °C 1022.9 hPa SW 3.7 km/h 3.7 km/h 52 % 0.0 mm
18:12 12.5 °C 2.9 °C 1022.9 hPa SW 3.7 km/h 3.7 km/h 52 % 0.0 mm
18:20 7.6 °C 0.8 °C 1023.9 hPa Calm   6.4 km/h 62 % 0.0 mm
18:27 12.1 °C 2.6 °C 1022.9 hPa West 3.7 km/h 3.7 km/h 52 % 0.0 mm
18:30 7.6 °C 0.8 °C 1022.9 hPa Calm   1.6 km/h 62 % 0.0 mm
18:32 12.1 °C 2.6 °C 1022.9 hPa WSW 3.7 km/h 3.9 km/h 52 % 0.0 mm
18:37 12.2 °C 2.9 °C 1022.9 hPa West 7.4 km/h 7.4 km/h 53 % 0.0 mm
18:40 7.4 °C 0.6 °C 1022.9 hPa Calm   1.6 km/h 62 % 0.0 mm
18:42 12.1 °C 2.8 °C 1022.9 hPa WNW 3.7 km/h 3.7 km/h 53 % 0.0 mm
18:47 12.1 °C 2.8 °C 1022.9 hPa WSW 5.6 km/h 5.6 km/h 53 % 0.0 mm
18:50 7.1 °C 0.5 °C 1022.9 hPa Calm   3.2 km/h 63 % 0.0 mm
18:57 12.0 °C 2.7 °C 1022.9 hPa WSW 2.3 km/h 2.3 km/h 53 % 0.0 mm
19:00 7.0 °C 0.4 °C 1022.9 hPa Calm   1.6 km/h 63 % 0.0 mm
19:10 6.8 °C 0.2 °C 1022.9 hPa NW 1.6 km/h 3.2 km/h 63 % 0.0 mm
19:12 11.4 °C 2.2 °C 1022.9 hPa West 2.3 km/h 2.3 km/h 53 % 0.0 mm
19:17 11.3 °C 2.1 °C 1022.9 hPa SW 3.7 km/h 3.7 km/h 53 % 0.0 mm
19:20 6.7 °C 0.2 °C 1022.9 hPa North 1.6 km/h 1.6 km/h 63 % 0.0 mm
19:22 11.1 °C 1.9 °C 1022.9 hPa SW 3.2 km/h 3.2 km/h 53 % 0.0 mm
19:27 11.0 °C 1.8 °C 1022.9 hPa SW 3.9 km/h 3.9 km/h 53 % 0.0 mm
19:32 10.8 °C 1.6 °C 1022.9 hPa SW 3.9 km/h 3.9 km/h 53 % 0.0 mm
19:40 6.5 °C 0.2 °C 1022.9 hPa Calm   1.6 km/h 64 % 0.0 mm
19:50 6.4 °C 0.1 °C 1022.9 hPa North 1.6 km/h 3.2 km/h 64 % 0.0 mm
19:52 10.3 °C 1.4 °C 1022.9 hPa WSW 3.9 km/h 3.9 km/h 54 % 0.0 mm
20:00 6.0 °C -0.3 °C 1022.9 hPa Calm   1.6 km/h 64 % 0.0 mm
20:02 10.0 °C 1.1 °C 1022.9 hPa WSW 3.7 km/h 3.7 km/h 54 % 0.0 mm
20:07 9.9 °C 1.0 °C 1022.9 hPa WSW 1.9 km/h 2.3 km/h 54 % 0.0 mm
20:10 6.0 °C -0.1 °C 1023.9 hPa Calm     65 % 0.0 mm
20:12 9.7 °C 1.1 °C 1022.9 hPa Calm     55 % 0.0 mm
20:20 6.0 °C -0.1 °C 1023.9 hPa West 1.6 km/h 1.6 km/h 65 % 0.0 mm
20:30 5.9 °C -0.2 °C 1023.9 hPa Calm   1.6 km/h 65 % 0.0 mm
20:32 9.4 °C 0.8 °C 1023.9 hPa Calm     55 % 0.0 mm
20:37 9.3 °C 0.9 °C 1023.9 hPa Calm     56 % 0.0 mm
20:40 5.8 °C -0.3 °C 1023.9 hPa West 1.6 km/h 3.2 km/h 65 % 0.0 mm
20:42 9.2 °C 0.9 °C 1023.9 hPa WSW 1.9 km/h   56 % 0.0 mm
20:47 9.2 °C 0.9 °C 1023.9 hPa WSW 3.7 km/h 3.7 km/h 56 % 0.0 mm
20:50 5.6 °C -0.4 °C 1023.9 hPa West 1.6 km/h 3.2 km/h 65 % 0.0 mm
20:52 9.1 °C 0.8 °C 1023.9 hPa SW 1.9 km/h   56 % 0.0 mm
20:57 9.0 °C 0.7 °C 1023.9 hPa SW 1.9 km/h   56 % 0.0 mm
21:00 5.7 °C -0.2 °C 1023.9 hPa WSW 1.6 km/h 3.2 km/h 66 % 0.0 mm
21:02 9.0 °C 0.7 °C 1023.9 hPa WSW 3.7 km/h 3.7 km/h 56 % 0.0 mm
21:07 9.0 °C 0.7 °C 1023.9 hPa WSW 3.7 km/h 3.7 km/h 56 % 0.0 mm
21:12 8.9 °C 0.8 °C 1023.9 hPa SW 4.2 km/h 4.2 km/h 57 % 0.0 mm
21:17 8.8 °C 0.7 °C 1023.9 hPa WSW 3.2 km/h 3.2 km/h 57 % 0.0 mm
21:20 5.5 °C -0.2 °C 1022.9 hPa Calm     67 % 0.0 mm
21:27 8.7 °C 0.7 °C 1023.9 hPa SW 3.7 km/h 3.7 km/h 57 % 0.0 mm
21:32 8.8 °C 0.7 °C 1022.9 hPa SW 3.7 km/h 3.7 km/h 57 % 0.0 mm
21:40 5.5 °C -0.2 °C 1023.9 hPa Calm   1.6 km/h 67 % 0.0 mm
21:43 8.7 °C 0.9 °C 1022.9 hPa Calm     58 % 0.0 mm
21:48 8.6 °C 0.8 °C 1023.9 hPa Calm     58 % 0.0 mm
21:50 5.2 °C -0.7 °C 1023.9 hPa WSW 1.6 km/h 3.2 km/h 66 % 0.0 mm
21:53 8.5 °C 0.7 °C 1023.9 hPa WSW 3.7 km/h 3.7 km/h 58 % 0.0 mm
21:58 8.3 °C 0.5 °C 1023.9 hPa WSW 3.7 km/h 3.7 km/h 58 % 0.0 mm
22:03 8.3 °C 0.5 °C 1023.9 hPa WSW 3.7 km/h 3.7 km/h 58 % 0.0 mm
22:08 8.2 °C 0.7 °C 1023.9 hPa WSW 3.7 km/h 3.7 km/h 59 % 0.0 mm
22:10 5.1 °C -0.6 °C 1022.9 hPa WSW 1.6 km/h 3.2 km/h 67 % 0.0 mm
22:13 8.2 °C 0.7 °C 1023.9 hPa WSW 3.7 km/h 3.7 km/h 59 % 0.0 mm
22:18 8.1 °C 0.6 °C 1023.9 hPa WSW 1.9 km/h   59 % 0.0 mm
22:23 8.0 °C 0.4 °C 1023.9 hPa WSW 2.3 km/h 2.3 km/h 59 % 0.0 mm
22:28 7.8 °C 0.5 °C 1023.9 hPa SW 3.7 km/h 3.7 km/h 60 % 0.0 mm
22:30 4.9 °C -0.5 °C 1022.9 hPa Calm     68 % 0.0 mm
22:33 7.7 °C 0.4 °C 1023.9 hPa WSW 3.7 km/h 3.7 km/h 60 % 0.0 mm
22:40 4.9 °C -0.3 °C 1022.9 hPa WSW 3.2 km/h 3.2 km/h 69 % 0.0 mm
22:43 7.6 °C 0.6 °C 1023.9 hPa Calm     61 % 0.0 mm
22:48 7.6 °C 0.6 °C 1023.9 hPa Calm     61 % 0.0 mm
22:49 7.5 °C 0.4 °C 1023.9 hPa Calm     61 % 0.0 mm
22:50 5.0 °C -0.2 °C 1022.9 hPa Calm   1.6 km/h 69 % 0.0 mm
22:54 7.5 °C 0.4 °C 1023.9 hPa Calm     61 % 0.0 mm
23:00 4.8 °C -0.6 °C 1022.9 hPa NW 1.6 km/h 3.2 km/h 68 % 0.0 mm
23:04 7.6 °C 0.6 °C 1023.9 hPa Calm     61 % 0.0 mm
23:10 4.8 °C -0.6 °C 1023.9 hPa Calm   3.2 km/h 68 % 0.0 mm
23:19 7.6 °C 0.6 °C 1022.9 hPa NNW 2.3 km/h 2.3 km/h 61 % 0.0 mm
23:20 4.8 °C -0.4 °C 1023.9 hPa Calm   1.6 km/h 69 % 0.0 mm
23:29 7.7 °C 0.7 °C 1022.9 hPa West 3.7 km/h 3.7 km/h 61 % 0.0 mm
23:30 4.7 °C -0.5 °C 1023.9 hPa Calm   3.2 km/h 69 % 0.0 mm
23:40 4.6 °C -0.6 °C 1023.9 hPa Calm     69 % 0.0 mm
23:44 7.5 °C 0.7 °C 1022.9 hPa WSW 1.9 km/h 2.3 km/h 62 % 0.0 mm
23:50 4.5 °C -0.7 °C 1023.9 hPa NW 1.6 km/h 3.2 km/h 69 % 0.0 mm
23:54 7.5 °C 0.7 °C 1022.9 hPa West 3.9 km/h 3.9 km/h 62 % 0.0 mm
Meteo Sesrovires
Elogis d' Weather Underground - 3.5 mb

Guio original per  Jim McMurry - jmcmurry@mwt.net Adaptat per a la plantilla per  Wim van der Kuil - Leuven-Template.eu

Trobareu la nostra informacio del temps tambe a:

Weather Underground

AWEKAS